Barcelona, Spain

12:43 AM CEST on August 01, 2015 (GMT +0200)
Avenida doctor Gallart i Mones, | | Change Station
CLOSE
Current Station
Personal Weather Station
Location: El Prat De Llobregat, CATALUNYA
Elevation: 13 ft
Nearby Weather Stations
Active Advisory: Thunderstorms

Elev 13 ft 41.32 °N, 2.09 °E | Updated 3 minutes ago

Scattered Clouds
Scattered Clouds
73.8 °F
Feels Like 75 °F
N
12.0
Wind Variable Wind from ENE
Gusts 12.0 mph

Today
High -- | Low -- °F
--% Chance of Precip.
Yesterday
High -- | Low -- °F
Precip. -- in
6:46 AM 9:09 PM
Full, 100% visible
Pressure 29.86 in
Visibility 6.2 miles
Clouds Few 2000 ft
Scattered Clouds 5500 ft
Heat Index 75 °F
Dew Point 64 °F
Humidity 72%
Rainfall 0.00 in
Snow Depth Not available.
UV 0.0 out of 12
Pollen Not available.
Air Quality Not available.
Flu Activity Not available.
METAR LEBL 312230Z 08011KT 040V100 9999 FEW020 SCT055 23/19 Q1011 NOSIG

More Conditions Fewer Conditions

Pressure 29.86 in
Visibility 6.2 miles
Clouds Few 2000 ft
Scattered Clouds 5500 ft
Heat Index 75 °F
Dew Point 64 °F
Humidity 72%
Rainfall 0.00 in
Snow Depth Not available.
UV 0.0 out of 12
Pollen Not available.
Air Quality Not available.
Flu Activity Not available.
METAR LEBL 312230Z 08011KT 040V100 9999 FEW020 SCT055 23/19 Q1011 NOSIG

More Conditions Fewer Conditions

10-Day Weather Forecast

×

Almanac

Astronomy

Aug. 01, 2015 Rise Set
Actual Time
Civil Twilight
Nautical Twilight
Astronomical Twilight
Moon
Length of Visible Light
Length of Day
Tomorrow will be .
, % of the Moon is Illuminated

Today's Extremes

Country Highs Country Lows

Community

WunderPhotos

Upload Photos

1,842,764 photos uploaded!

WunderBlogs® & News

Nearby

Air Quality

  Air Quality AQ Index Pollutant
Not available.

Snow Depth

Station Depth Elevation

Earthquake Activity

City Distance Mag. Time & Date
Minimum magnitude displayed is 2.5.

Coastal Water Temperatures

Place Temperature

Stations

Nearby Weather Stations

Station Location Temp. Windchill Dew Point Humidity Wind Precip. Elev Updated Type